LROP/OTP METAR and TAF weather

Enter ICAO airport designator
Station Type Date Time Source
LROP METAR 2019/08/24 18:30 UTC NOAA

LROP 241830Z 03007KT CAVOK 27/14 Q1020 NOSIG


Station Type Date Time Source
LROP Decoded METAR 2019/08/24 18:30 UTC NOAA

Station name not available
Aug 24, 2019 - 02:30 PM EDT / 2019.08.24 1830 UTC
Wind: from the NNE (030 degrees) at 8 MPH (7 KT):0
Visibility: greater than 7 mile(s):0
Temperature: 80 F (27 C)
Dew Point: 57 F (14 C)
Relative Humidity: 44%
Pressure (altimeter): 30.12 in. Hg (1020 hPa)
ob: LROP 241830Z 03007KT CAVOK 27/14 Q1020 NOSIG
cycle: 18

Station Type Date Time Source
LROP TAF 2019/08/24 18:33 UTC NOAA

TAF LROP 241700Z 2418/2518 05010KT CAVOK
TEMPO 2508/2516 06015G25KT PROB30
TEMPO 2513/2516 5000 -TSRA SCT040CB

Example: see airport list